sensor_id;sensor_type;location;lat;lon;timestamp;P1;durP1;ratioP1;P2;durP2;ratioP2
12165;SDS011;6146;48.128;11.476;2024-03-08T00:00:16;14.90;;;10.93;;
12165;SDS011;6146;48.128;11.476;2024-03-08T00:02:43;18.00;;;12.40;;
12165;SDS011;6146;48.128;11.476;2024-03-08T00:05:10;15.90;;;12.20;;
12165;SDS011;6146;48.128;11.476;2024-03-08T00:07:36;15.43;;;11.57;;
12165;SDS011;6146;48.128;11.476;2024-03-08T00:10:05;15.67;;;11.60;;
12165;SDS011;6146;48.128;11.476;2024-03-08T00:12:36;15.97;;;11.63;;
12165;SDS011;6146;48.128;11.476;2024-03-08T00:15:12;17.03;;;12.47;;
12165;SDS011;6146;48.128;11.476;2024-03-08T00:17:39;17.47;;;12.30;;
12165;SDS011;6146;48.128;11.476;2024-03-08T00:20:06;14.67;;;11.97;;
12165;SDS011;6146;48.128;11.476;2024-03-08T00:22:35;17.33;;;11.67;;
12165;SDS011;6146;48.128;11.476;2024-03-08T00:25:01;17.37;;;12.63;;
12165;SDS011;6146;48.128;11.476;2024-03-08T00:27:27;15.57;;;11.43;;
12165;SDS011;6146;48.128;11.476;2024-03-08T00:29:59;15.03;;;11.77;;
12165;SDS011;6146;48.128;11.476;2024-03-08T00:32:25;14.80;;;12.10;;
12165;SDS011;6146;48.128;11.476;2024-03-08T00:34:52;17.53;;;12.57;;
12165;SDS011;6146;48.128;11.476;2024-03-08T00:37:21;17.67;;;12.87;;
12165;SDS011;6146;48.128;11.476;2024-03-08T00:39:52;16.60;;;11.53;;
12165;SDS011;6146;48.128;11.476;2024-03-08T00:42:18;16.03;;;11.63;;
12165;SDS011;6146;48.128;11.476;2024-03-08T00:44:44;16.80;;;12.07;;
12165;SDS011;6146;48.128;11.476;2024-03-08T00:47:10;17.00;;;11.83;;
12165;SDS011;6146;48.128;11.476;2024-03-08T00:49:36;16.80;;;12.50;;
12165;SDS011;6146;48.128;11.476;2024-03-08T00:52:03;18.27;;;12.37;;
12165;SDS011;6146;48.128;11.476;2024-03-08T00:54:31;18.93;;;13.87;;
12165;SDS011;6146;48.128;11.476;2024-03-08T00:56:56;16.33;;;12.70;;
12165;SDS011;6146;48.128;11.476;2024-03-08T00:59:22;16.97;;;12.40;;
12165;SDS011;6146;48.128;11.476;2024-03-08T01:01:48;16.90;;;12.73;;
12165;SDS011;6146;48.128;11.476;2024-03-08T01:04:13;18.90;;;12.73;;
12165;SDS011;6146;48.128;11.476;2024-03-08T01:06:39;15.83;;;12.13;;
12165;SDS011;6146;48.128;11.476;2024-03-08T01:09:04;16.93;;;12.53;;
12165;SDS011;6146;48.128;11.476;2024-03-08T01:11:32;18.23;;;12.63;;
12165;SDS011;6146;48.128;11.476;2024-03-08T01:13:58;17.53;;;12.97;;
12165;SDS011;6146;48.128;11.476;2024-03-08T01:16:24;18.53;;;13.47;;
12165;SDS011;6146;48.128;11.476;2024-03-08T01:18:50;16.70;;;13.43;;
12165;SDS011;6146;48.128;11.476;2024-03-08T01:21:15;19.37;;;12.93;;
12165;SDS011;6146;48.128;11.476;2024-03-08T01:23:41;16.80;;;13.00;;
12165;SDS011;6146;48.128;11.476;2024-03-08T01:26:07;18.07;;;13.17;;
12165;SDS011;6146;48.128;11.476;2024-03-08T01:28:32;19.63;;;14.17;;
12165;SDS011;6146;48.128;11.476;2024-03-08T01:30:59;17.90;;;13.83;;
12165;SDS011;6146;48.128;11.476;2024-03-08T01:33:25;16.33;;;12.47;;
12165;SDS011;6146;48.128;11.476;2024-03-08T01:35:52;20.00;;;14.20;;
12165;SDS011;6146;48.128;11.476;2024-03-08T01:38:18;18.57;;;13.60;;
12165;SDS011;6146;48.128;11.476;2024-03-08T01:40:46;18.13;;;13.67;;
12165;SDS011;6146;48.128;11.476;2024-03-08T01:43:18;20.47;;;13.40;;
12165;SDS011;6146;48.128;11.476;2024-03-08T01:45:50;19.63;;;14.13;;
12165;SDS011;6146;48.128;11.476;2024-03-08T01:48:16;19.73;;;14.33;;
12165;SDS011;6146;48.128;11.476;2024-03-08T01:50:42;19.83;;;14.07;;
12165;SDS011;6146;48.128;11.476;2024-03-08T01:53:08;17.40;;;13.00;;
12165;SDS011;6146;48.128;11.476;2024-03-08T01:55:36;19.50;;;14.00;;
12165;SDS011;6146;48.128;11.476;2024-03-08T01:58:03;18.30;;;13.97;;
12165;SDS011;6146;48.128;11.476;2024-03-08T02:00:30;18.43;;;12.80;;
12165;SDS011;6146;48.128;11.476;2024-03-08T02:02:59;20.60;;;13.77;;
12165;SDS011;6146;48.128;11.476;2024-03-08T02:05:25;20.50;;;13.23;;
12165;SDS011;6146;48.128;11.476;2024-03-08T02:07:51;18.47;;;14.03;;
12165;SDS011;6146;48.128;11.476;2024-03-08T02:10:16;19.47;;;13.90;;
12165;SDS011;6146;48.128;11.476;2024-03-08T02:12:42;19.87;;;13.70;;
12165;SDS011;6146;48.128;11.476;2024-03-08T02:15:08;22.77;;;14.43;;
12165;SDS011;6146;48.128;11.476;2024-03-08T02:17:34;19.23;;;14.13;;
12165;SDS011;6146;48.128;11.476;2024-03-08T02:19:59;23.93;;;16.60;;
12165;SDS011;6146;48.128;11.476;2024-03-08T02:22:30;23.20;;;14.37;;
12165;SDS011;6146;48.128;11.476;2024-03-08T02:24:57;21.33;;;14.37;;
12165;SDS011;6146;48.128;11.476;2024-03-08T02:27:24;20.00;;;14.57;;
12165;SDS011;6146;48.128;11.476;2024-03-08T02:29:56;20.33;;;14.97;;
12165;SDS011;6146;48.128;11.476;2024-03-08T02:32:22;20.13;;;14.13;;
12165;SDS011;6146;48.128;11.476;2024-03-08T02:34:48;18.83;;;14.23;;
12165;SDS011;6146;48.128;11.476;2024-03-08T02:37:14;22.03;;;13.50;;
12165;SDS011;6146;48.128;11.476;2024-03-08T02:39:40;20.27;;;15.03;;
12165;SDS011;6146;48.128;11.476;2024-03-08T02:42:06;21.77;;;15.07;;
12165;SDS011;6146;48.128;11.476;2024-03-08T02:44:32;21.20;;;15.27;;
12165;SDS011;6146;48.128;11.476;2024-03-08T02:46:58;22.57;;;14.67;;
12165;SDS011;6146;48.128;11.476;2024-03-08T02:49:24;21.27;;;14.53;;
12165;SDS011;6146;48.128;11.476;2024-03-08T02:51:51;19.63;;;13.97;;
12165;SDS011;6146;48.128;11.476;2024-03-08T02:54:17;20.77;;;14.50;;
12165;SDS011;6146;48.128;11.476;2024-03-08T02:56:44;18.77;;;14.23;;
12165;SDS011;6146;48.128;11.476;2024-03-08T02:59:11;21.60;;;14.80;;
12165;SDS011;6146;48.128;11.476;2024-03-08T03:01:37;20.77;;;14.67;;
12165;SDS011;6146;48.128;11.476;2024-03-08T03:04:04;21.23;;;15.17;;
12165;SDS011;6146;48.128;11.476;2024-03-08T03:06:29;20.07;;;13.77;;
12165;SDS011;6146;48.128;11.476;2024-03-08T03:08:56;23.30;;;15.10;;
12165;SDS011;6146;48.128;11.476;2024-03-08T03:11:22;21.37;;;15.23;;
12165;SDS011;6146;48.128;11.476;2024-03-08T03:13:48;19.27;;;14.27;;
12165;SDS011;6146;48.128;11.476;2024-03-08T03:16:17;20.87;;;14.67;;
12165;SDS011;6146;48.128;11.476;2024-03-08T03:18:46;20.97;;;14.93;;
12165;SDS011;6146;48.128;11.476;2024-03-08T03:21:13;22.77;;;15.53;;
12165;SDS011;6146;48.128;11.476;2024-03-08T03:23:39;22.70;;;15.93;;
12165;SDS011;6146;48.128;11.476;2024-03-08T03:26:05;22.27;;;15.70;;
12165;SDS011;6146;48.128;11.476;2024-03-08T03:28:32;22.97;;;15.93;;
12165;SDS011;6146;48.128;11.476;2024-03-08T03:30:58;19.27;;;13.93;;
12165;SDS011;6146;48.128;11.476;2024-03-08T03:33:24;22.13;;;15.80;;
12165;SDS011;6146;48.128;11.476;2024-03-08T03:35:50;22.27;;;15.97;;
12165;SDS011;6146;48.128;11.476;2024-03-08T03:38:16;21.77;;;16.30;;
12165;SDS011;6146;48.128;11.476;2024-03-08T03:40:44;20.83;;;14.90;;
12165;SDS011;6146;48.128;11.476;2024-03-08T03:43:11;20.40;;;15.90;;
12165;SDS011;6146;48.128;11.476;2024-03-08T03:45:36;21.30;;;15.93;;
12165;SDS011;6146;48.128;11.476;2024-03-08T03:48:05;19.37;;;14.97;;
12165;SDS011;6146;48.128;11.476;2024-03-08T03:50:33;21.83;;;15.83;;
12165;SDS011;6146;48.128;11.476;2024-03-08T03:52:59;24.13;;;16.23;;
12165;SDS011;6146;48.128;11.476;2024-03-08T03:55:25;27.03;;;17.37;;
12165;SDS011;6146;48.128;11.476;2024-03-08T03:57:52;25.00;;;16.63;;
12165;SDS011;6146;48.128;11.476;2024-03-08T04:00:17;25.13;;;16.17;;
12165;SDS011;6146;48.128;11.476;2024-03-08T04:02:43;22.80;;;16.03;;
12165;SDS011;6146;48.128;11.476;2024-03-08T04:05:09;24.00;;;15.97;;
12165;SDS011;6146;48.128;11.476;2024-03-08T04:07:36;21.90;;;15.93;;
12165;SDS011;6146;48.128;11.476;2024-03-08T04:10:03;25.43;;;17.37;;
12165;SDS011;6146;48.128;11.476;2024-03-08T04:12:31;26.00;;;17.13;;
12165;SDS011;6146;48.128;11.476;2024-03-08T04:14:57;26.00;;;16.87;;
12165;SDS011;6146;48.128;11.476;2024-03-08T04:17:23;25.83;;;16.30;;
12165;SDS011;6146;48.128;11.476;2024-03-08T04:19:51;22.03;;;15.60;;
12165;SDS011;6146;48.128;11.476;2024-03-08T04:22:17;26.93;;;16.63;;
12165;SDS011;6146;48.128;11.476;2024-03-08T04:24:44;24.80;;;16.23;;
12165;SDS011;6146;48.128;11.476;2024-03-08T04:27:09;27.07;;;18.37;;
12165;SDS011;6146;48.128;11.476;2024-03-08T04:29:35;26.17;;;16.93;;
12165;SDS011;6146;48.128;11.476;2024-03-08T04:32:02;23.93;;;16.83;;
12165;SDS011;6146;48.128;11.476;2024-03-08T04:34:29;28.83;;;17.60;;
12165;SDS011;6146;48.128;11.476;2024-03-08T04:36:56;22.53;;;16.53;;
12165;SDS011;6146;48.128;11.476;2024-03-08T04:39:22;24.20;;;17.97;;
12165;SDS011;6146;48.128;11.476;2024-03-08T04:41:48;27.53;;;18.30;;
12165;SDS011;6146;48.128;11.476;2024-03-08T04:44:15;23.23;;;17.17;;
12165;SDS011;6146;48.128;11.476;2024-03-08T04:46:41;25.90;;;17.93;;
12165;SDS011;6146;48.128;11.476;2024-03-08T04:49:06;26.93;;;19.03;;
12165;SDS011;6146;48.128;11.476;2024-03-08T04:51:32;23.60;;;18.63;;
12165;SDS011;6146;48.128;11.476;2024-03-08T04:53:58;23.63;;;16.83;;
12165;SDS011;6146;48.128;11.476;2024-03-08T04:56:24;24.33;;;17.83;;
12165;SDS011;6146;48.128;11.476;2024-03-08T04:58:50;28.43;;;19.23;;
12165;SDS011;6146;48.128;11.476;2024-03-08T05:01:16;27.90;;;18.27;;
12165;SDS011;6146;48.128;11.476;2024-03-08T05:03:42;27.20;;;18.37;;
12165;SDS011;6146;48.128;11.476;2024-03-08T05:06:07;25.97;;;18.50;;
12165;SDS011;6146;48.128;11.476;2024-03-08T05:08:33;26.97;;;18.57;;
12165;SDS011;6146;48.128;11.476;2024-03-08T05:10:59;23.87;;;18.00;;
12165;SDS011;6146;48.128;11.476;2024-03-08T05:13:29;26.53;;;18.07;;
12165;SDS011;6146;48.128;11.476;2024-03-08T05:15:55;32.37;;;18.87;;
12165;SDS011;6146;48.128;11.476;2024-03-08T05:18:23;25.33;;;18.83;;
12165;SDS011;6146;48.128;11.476;2024-03-08T05:20:49;29.07;;;18.93;;
12165;SDS011;6146;48.128;11.476;2024-03-08T05:23:16;27.00;;;18.83;;
12165;SDS011;6146;48.128;11.476;2024-03-08T05:25:41;27.67;;;19.23;;
12165;SDS011;6146;48.128;11.476;2024-03-08T05:28:07;28.03;;;19.03;;
12165;SDS011;6146;48.128;11.476;2024-03-08T05:30:33;28.23;;;18.17;;
12165;SDS011;6146;48.128;11.476;2024-03-08T05:33:01;24.17;;;18.23;;
12165;SDS011;6146;48.128;11.476;2024-03-08T05:35:26;26.23;;;18.57;;
12165;SDS011;6146;48.128;11.476;2024-03-08T05:37:52;26.43;;;18.60;;
12165;SDS011;6146;48.128;11.476;2024-03-08T05:40:17;24.73;;;17.67;;
12165;SDS011;6146;48.128;11.476;2024-03-08T05:42:44;26.50;;;18.10;;
12165;SDS011;6146;48.128;11.476;2024-03-08T05:45:09;27.77;;;19.23;;
12165;SDS011;6146;48.128;11.476;2024-03-08T05:47:36;25.27;;;18.47;;
12165;SDS011;6146;48.128;11.476;2024-03-08T05:50:01;26.47;;;18.80;;
12165;SDS011;6146;48.128;11.476;2024-03-08T05:52:27;25.57;;;17.87;;
12165;SDS011;6146;48.128;11.476;2024-03-08T05:54:52;24.70;;;18.73;;
12165;SDS011;6146;48.128;11.476;2024-03-08T05:57:18;26.23;;;18.00;;
12165;SDS011;6146;48.128;11.476;2024-03-08T05:59:44;27.43;;;19.33;;
12165;SDS011;6146;48.128;11.476;2024-03-08T06:02:09;25.20;;;18.13;;
12165;SDS011;6146;48.128;11.476;2024-03-08T06:04:35;26.73;;;18.87;;
12165;SDS011;6146;48.128;11.476;2024-03-08T06:07:01;25.57;;;18.17;;
12165;SDS011;6146;48.128;11.476;2024-03-08T06:09:28;28.37;;;18.43;;
12165;SDS011;6146;48.128;11.476;2024-03-08T06:11:54;26.20;;;17.00;;
12165;SDS011;6146;48.128;11.476;2024-03-08T06:14:20;25.53;;;16.13;;
12165;SDS011;6146;48.128;11.476;2024-03-08T06:16:46;21.13;;;17.13;;
12165;SDS011;6146;48.128;11.476;2024-03-08T06:19:12;24.70;;;17.23;;
12165;SDS011;6146;48.128;11.476;2024-03-08T06:21:38;23.33;;;16.40;;
12165;SDS011;6146;48.128;11.476;2024-03-08T06:24:03;22.87;;;15.80;;
12165;SDS011;6146;48.128;11.476;2024-03-08T06:26:29;25.40;;;16.57;;
12165;SDS011;6146;48.128;11.476;2024-03-08T06:28:55;23.23;;;16.23;;
12165;SDS011;6146;48.128;11.476;2024-03-08T06:31:21;21.80;;;17.13;;
12165;SDS011;6146;48.128;11.476;2024-03-08T06:33:47;23.77;;;16.50;;
12165;SDS011;6146;48.128;11.476;2024-03-08T06:36:17;24.60;;;16.83;;
12165;SDS011;6146;48.128;11.476;2024-03-08T06:38:49;24.43;;;16.00;;
12165;SDS011;6146;48.128;11.476;2024-03-08T06:41:15;21.47;;;15.33;;
12165;SDS011;6146;48.128;11.476;2024-03-08T06:43:43;26.97;;;17.13;;
12165;SDS011;6146;48.128;11.476;2024-03-08T06:46:10;22.60;;;16.37;;
12165;SDS011;6146;48.128;11.476;2024-03-08T06:48:37;22.47;;;15.20;;
12165;SDS011;6146;48.128;11.476;2024-03-08T06:51:04;20.47;;;15.23;;
12165;SDS011;6146;48.128;11.476;2024-03-08T06:53:30;24.63;;;15.80;;
12165;SDS011;6146;48.128;11.476;2024-03-08T06:55:56;22.90;;;16.03;;
12165;SDS011;6146;48.128;11.476;2024-03-08T06:58:22;24.10;;;16.90;;
12165;SDS011;6146;48.128;11.476;2024-03-08T07:00:48;21.67;;;14.63;;
12165;SDS011;6146;48.128;11.476;2024-03-08T07:03:17;20.17;;;14.50;;
12165;SDS011;6146;48.128;11.476;2024-03-08T07:05:43;19.17;;;14.47;;
12165;SDS011;6146;48.128;11.476;2024-03-08T07:08:08;18.27;;;13.43;;
12165;SDS011;6146;48.128;11.476;2024-03-08T07:10:34;19.43;;;13.93;;
12165;SDS011;6146;48.128;11.476;2024-03-08T07:13:00;19.73;;;14.20;;
12165;SDS011;6146;48.128;11.476;2024-03-08T07:15:29;19.90;;;13.77;;
12165;SDS011;6146;48.128;11.476;2024-03-08T07:17:54;21.13;;;15.03;;
12165;SDS011;6146;48.128;11.476;2024-03-08T07:20:20;20.27;;;14.07;;
12165;SDS011;6146;48.128;11.476;2024-03-08T07:22:46;22.67;;;14.27;;
12165;SDS011;6146;48.128;11.476;2024-03-08T07:25:13;19.90;;;14.23;;
12165;SDS011;6146;48.128;11.476;2024-03-08T07:27:54;21.83;;;15.53;;
12165;SDS011;6146;48.128;11.476;2024-03-08T07:30:21;23.57;;;14.37;;
12165;SDS011;6146;48.128;11.476;2024-03-08T07:33:08;20.97;;;15.33;;
12165;SDS011;6146;48.128;11.476;2024-03-08T07:35:36;21.73;;;14.90;;
12165;SDS011;6146;48.128;11.476;2024-03-08T07:38:08;20.93;;;14.90;;
12165;SDS011;6146;48.128;11.476;2024-03-08T07:40:35;23.33;;;15.10;;
12165;SDS011;6146;48.128;11.476;2024-03-08T07:43:01;22.63;;;15.60;;
12165;SDS011;6146;48.128;11.476;2024-03-08T07:45:27;20.83;;;15.67;;
12165;SDS011;6146;48.128;11.476;2024-03-08T07:47:53;21.60;;;15.80;;
12165;SDS011;6146;48.128;11.476;2024-03-08T07:50:18;26.20;;;16.00;;
12165;SDS011;6146;48.128;11.476;2024-03-08T07:52:44;22.03;;;15.37;;
12165;SDS011;6146;48.128;11.476;2024-03-08T07:55:10;22.87;;;16.53;;
12165;SDS011;6146;48.128;11.476;2024-03-08T07:57:35;22.87;;;15.67;;
12165;SDS011;6146;48.128;11.476;2024-03-08T08:00:03;22.83;;;15.27;;
12165;SDS011;6146;48.128;11.476;2024-03-08T08:02:32;21.43;;;14.77;;
12165;SDS011;6146;48.128;11.476;2024-03-08T08:04:58;22.63;;;15.67;;
12165;SDS011;6146;48.128;11.476;2024-03-08T08:07:24;20.67;;;14.93;;
12165;SDS011;6146;48.128;11.476;2024-03-08T08:09:49;19.20;;;14.00;;
12165;SDS011;6146;48.128;11.476;2024-03-08T08:12:15;20.17;;;14.50;;
12165;SDS011;6146;48.128;11.476;2024-03-08T08:14:41;20.53;;;14.83;;
12165;SDS011;6146;48.128;11.476;2024-03-08T08:17:06;20.40;;;14.70;;
12165;SDS011;6146;48.128;11.476;2024-03-08T08:19:33;19.13;;;14.23;;
12165;SDS011;6146;48.128;11.476;2024-03-08T08:22:00;20.73;;;14.77;;
12165;SDS011;6146;48.128;11.476;2024-03-08T08:24:27;19.97;;;13.70;;
12165;SDS011;6146;48.128;11.476;2024-03-08T08:26:53;18.83;;;14.00;;
12165;SDS011;6146;48.128;11.476;2024-03-08T08:29:18;19.27;;;13.87;;
12165;SDS011;6146;48.128;11.476;2024-03-08T08:31:45;18.53;;;13.93;;
12165;SDS011;6146;48.128;11.476;2024-03-08T08:34:11;17.30;;;12.97;;
12165;SDS011;6146;48.128;11.476;2024-03-08T08:36:40;17.57;;;13.50;;
12165;SDS011;6146;48.128;11.476;2024-03-08T08:39:05;16.37;;;12.60;;
12165;SDS011;6146;48.128;11.476;2024-03-08T08:41:37;19.60;;;13.47;;
12165;SDS011;6146;48.128;11.476;2024-03-08T08:44:02;18.13;;;13.53;;
12165;SDS011;6146;48.128;11.476;2024-03-08T08:46:28;16.27;;;12.47;;
12165;SDS011;6146;48.128;11.476;2024-03-08T08:48:54;18.47;;;13.37;;
12165;SDS011;6146;48.128;11.476;2024-03-08T08:51:19;15.10;;;12.60;;
12165;SDS011;6146;48.128;11.476;2024-03-08T08:53:45;16.70;;;12.57;;
12165;SDS011;6146;48.128;11.476;2024-03-08T08:56:12;15.27;;;12.27;;
12165;SDS011;6146;48.128;11.476;2024-03-08T08:58:44;15.70;;;12.57;;
12165;SDS011;6146;48.128;11.476;2024-03-08T09:01:10;17.17;;;11.83;;
12165;SDS011;6146;48.128;11.476;2024-03-08T09:03:36;15.47;;;12.03;;
12165;SDS011;6146;48.128;11.476;2024-03-08T09:06:03;15.97;;;12.37;;
12165;SDS011;6146;48.128;11.476;2024-03-08T09:08:29;15.13;;;11.80;;
12165;SDS011;6146;48.128;11.476;2024-03-08T09:10:55;14.00;;;11.73;;
12165;SDS011;6146;48.128;11.476;2024-03-08T09:13:21;14.33;;;12.13;;
12165;SDS011;6146;48.128;11.476;2024-03-08T09:15:46;14.70;;;11.70;;
12165;SDS011;6146;48.128;11.476;2024-03-08T09:18:12;16.00;;;12.47;;
12165;SDS011;6146;48.128;11.476;2024-03-08T09:20:37;13.93;;;11.43;;
12165;SDS011;6146;48.128;11.476;2024-03-08T09:23:03;16.50;;;12.93;;
12165;SDS011;6146;48.128;11.476;2024-03-08T09:25:29;14.80;;;12.10;;
12165;SDS011;6146;48.128;11.476;2024-03-08T09:27:54;15.43;;;11.77;;
12165;SDS011;6146;48.128;11.476;2024-03-08T09:30:20;14.17;;;12.53;;
12165;SDS011;6146;48.128;11.476;2024-03-08T09:32:46;15.13;;;11.63;;
12165;SDS011;6146;48.128;11.476;2024-03-08T09:35:12;13.80;;;11.93;;
12165;SDS011;6146;48.128;11.476;2024-03-08T09:37:38;14.13;;;11.53;;
12165;SDS011;6146;48.128;11.476;2024-03-08T09:40:03;12.83;;;11.13;;
12165;SDS011;6146;48.128;11.476;2024-03-08T09:42:34;12.00;;;10.27;;
12165;SDS011;6146;48.128;11.476;2024-03-08T09:45:03;12.67;;;11.03;;
12165;SDS011;6146;48.128;11.476;2024-03-08T09:47:36;13.53;;;11.47;;
12165;SDS011;6146;48.128;11.476;2024-03-08T09:50:05;13.17;;;11.77;;
12165;SDS011;6146;48.128;11.476;2024-03-08T09:52:41;13.23;;;11.17;;
12165;SDS011;6146;48.128;11.476;2024-03-08T09:55:08;13.83;;;12.33;;
12165;SDS011;6146;48.128;11.476;2024-03-08T09:57:39;15.07;;;12.23;;
12165;SDS011;6146;48.128;11.476;2024-03-08T10:00:05;12.57;;;11.23;;
12165;SDS011;6146;48.128;11.476;2024-03-08T10:02:48;13.93;;;12.30;;
12165;SDS011;6146;48.128;11.476;2024-03-08T10:05:17;14.77;;;12.50;;
12165;SDS011;6146;48.128;11.476;2024-03-08T10:07:43;15.63;;;12.80;;
12165;SDS011;6146;48.128;11.476;2024-03-08T10:10:09;16.27;;;13.00;;
12165;SDS011;6146;48.128;11.476;2024-03-08T10:12:37;15.23;;;12.37;;
12165;SDS011;6146;48.128;11.476;2024-03-08T10:15:05;14.80;;;12.90;;
12165;SDS011;6146;48.128;11.476;2024-03-08T10:17:33;15.60;;;13.07;;
12165;SDS011;6146;48.128;11.476;2024-03-08T10:19:59;15.43;;;12.57;;
12165;SDS011;6146;48.128;11.476;2024-03-08T10:22:26;16.10;;;13.17;;
12165;SDS011;6146;48.128;11.476;2024-03-08T10:24:51;15.87;;;13.50;;
12165;SDS011;6146;48.128;11.476;2024-03-08T10:27:17;15.63;;;13.37;;
12165;SDS011;6146;48.128;11.476;2024-03-08T10:29:46;15.60;;;13.67;;
12165;SDS011;6146;48.128;11.476;2024-03-08T10:32:16;15.93;;;12.97;;
12165;SDS011;6146;48.128;11.476;2024-03-08T10:34:42;14.53;;;12.23;;
12165;SDS011;6146;48.128;11.476;2024-03-08T10:37:07;16.10;;;12.87;;
12165;SDS011;6146;48.128;11.476;2024-03-08T10:39:42;15.00;;;12.27;;
12165;SDS011;6146;48.128;11.476;2024-03-08T10:42:13;14.80;;;12.17;;
12165;SDS011;6146;48.128;11.476;2024-03-08T10:44:57;15.30;;;12.77;;
12165;SDS011;6146;48.128;11.476;2024-03-08T10:47:47;14.50;;;11.70;;
12165;SDS011;6146;48.128;11.476;2024-03-08T10:52:49;14.03;;;11.87;;
12165;SDS011;6146;48.128;11.476;2024-03-08T10:55:17;14.53;;;11.77;;
12165;SDS011;6146;48.128;11.476;2024-03-08T10:57:45;13.80;;;11.27;;
12165;SDS011;6146;48.128;11.476;2024-03-08T11:00:11;12.80;;;10.60;;
12165;SDS011;6146;48.128;11.476;2024-03-08T11:02:38;12.47;;;11.17;;
12165;SDS011;6146;48.128;11.476;2024-03-08T11:05:04;13.43;;;10.87;;
12165;SDS011;6146;48.128;11.476;2024-03-08T11:07:34;13.23;;;11.03;;
12165;SDS011;6146;48.128;11.476;2024-03-08T11:10:02;12.67;;;11.13;;
12165;SDS011;6146;48.128;11.476;2024-03-08T11:12:35;13.07;;;10.97;;
12165;SDS011;6146;48.128;11.476;2024-03-08T11:15:02;13.33;;;11.33;;
12165;SDS011;6146;48.128;11.476;2024-03-08T11:20:12;13.13;;;10.70;;
12165;SDS011;6146;48.128;11.476;2024-03-08T11:22:40;12.23;;;10.17;;
12165;SDS011;6146;48.128;11.476;2024-03-08T11:25:16;11.90;;;10.00;;
12165;SDS011;6146;48.128;11.476;2024-03-08T11:28:08;12.27;;;10.27;;
12165;SDS011;6146;48.128;11.476;2024-03-08T11:30:33;12.70;;;10.47;;
12165;SDS011;6146;48.128;11.476;2024-03-08T11:33:00;13.50;;;10.00;;
12165;SDS011;6146;48.128;11.476;2024-03-08T11:35:28;12.77;;;10.57;;
12165;SDS011;6146;48.128;11.476;2024-03-08T11:37:53;12.27;;;9.97;;
12165;SDS011;6146;48.128;11.476;2024-03-08T11:40:19;11.17;;;9.77;;
12165;SDS011;6146;48.128;11.476;2024-03-08T11:42:46;12.07;;;9.73;;
12165;SDS011;6146;48.128;11.476;2024-03-08T11:45:16;11.77;;;10.20;;
12165;SDS011;6146;48.128;11.476;2024-03-08T11:47:45;11.23;;;10.03;;
12165;SDS011;6146;48.128;11.476;2024-03-08T11:50:14;12.40;;;10.67;;
12165;SDS011;6146;48.128;11.476;2024-03-08T11:52:40;12.50;;;10.20;;
12165;SDS011;6146;48.128;11.476;2024-03-08T11:55:06;11.60;;;10.27;;
12165;SDS011;6146;48.128;11.476;2024-03-08T11:57:32;13.50;;;10.50;;
12165;SDS011;6146;48.128;11.476;2024-03-08T11:59:58;11.17;;;9.93;;
12165;SDS011;6146;48.128;11.476;2024-03-08T12:02:31;11.03;;;9.37;;
12165;SDS011;6146;48.128;11.476;2024-03-08T12:05:05;10.77;;;9.50;;
12165;SDS011;6146;48.128;11.476;2024-03-08T12:07:31;12.70;;;10.67;;
12165;SDS011;6146;48.128;11.476;2024-03-08T12:10:16;11.77;;;10.47;;
12165;SDS011;6146;48.128;11.476;2024-03-08T12:12:46;14.27;;;10.37;;
12165;SDS011;6146;48.128;11.476;2024-03-08T12:15:14;12.23;;;10.67;;
12165;SDS011;6146;48.128;11.476;2024-03-08T12:17:40;12.77;;;10.97;;
12165;SDS011;6146;48.128;11.476;2024-03-08T12:20:11;11.77;;;10.47;;
12165;SDS011;6146;48.128;11.476;2024-03-08T12:22:42;12.37;;;10.40;;
12165;SDS011;6146;48.128;11.476;2024-03-08T12:25:08;14.57;;;10.90;;
12165;SDS011;6146;48.128;11.476;2024-03-08T12:27:38;13.83;;;10.57;;
12165;SDS011;6146;48.128;11.476;2024-03-08T12:33:16;12.03;;;10.20;;
12165;SDS011;6146;48.128;11.476;2024-03-08T12:35:37;12.50;;;10.40;;
12165;SDS011;6146;48.128;11.476;2024-03-08T12:38:03;12.43;;;11.03;;
12165;SDS011;6146;48.128;11.476;2024-03-08T12:40:31;13.67;;;10.90;;
12165;SDS011;6146;48.128;11.476;2024-03-08T12:42:59;12.53;;;10.73;;
12165;SDS011;6146;48.128;11.476;2024-03-08T12:45:27;10.77;;;9.63;;
12165;SDS011;6146;48.128;11.476;2024-03-08T12:47:53;12.57;;;10.50;;
12165;SDS011;6146;48.128;11.476;2024-03-08T12:50:20;13.87;;;10.83;;
12165;SDS011;6146;48.128;11.476;2024-03-08T12:52:46;13.03;;;10.80;;
12165;SDS011;6146;48.128;11.476;2024-03-08T12:55:13;12.63;;;10.93;;
12165;SDS011;6146;48.128;11.476;2024-03-08T12:57:41;13.10;;;10.90;;
12165;SDS011;6146;48.128;11.476;2024-03-08T13:00:07;13.23;;;11.30;;
12165;SDS011;6146;48.128;11.476;2024-03-08T13:02:38;12.23;;;10.20;;
12165;SDS011;6146;48.128;11.476;2024-03-08T13:05:04;12.17;;;10.53;;
12165;SDS011;6146;48.128;11.476;2024-03-08T13:07:30;11.83;;;9.97;;
12165;SDS011;6146;48.128;11.476;2024-03-08T13:09:56;12.63;;;10.97;;
12165;SDS011;6146;48.128;11.476;2024-03-08T13:12:24;12.90;;;11.07;;
12165;SDS011;6146;48.128;11.476;2024-03-08T13:14:50;12.50;;;11.20;;
12165;SDS011;6146;48.128;11.476;2024-03-08T13:17:16;12.90;;;10.67;;
12165;SDS011;6146;48.128;11.476;2024-03-08T13:19:43;11.90;;;10.23;;
12165;SDS011;6146;48.128;11.476;2024-03-08T13:22:09;12.60;;;10.70;;
12165;SDS011;6146;48.128;11.476;2024-03-08T13:24:38;13.30;;;10.07;;
12165;SDS011;6146;48.128;11.476;2024-03-08T13:27:05;11.60;;;10.37;;
12165;SDS011;6146;48.128;11.476;2024-03-08T13:29:41;13.80;;;11.37;;
12165;SDS011;6146;48.128;11.476;2024-03-08T13:32:08;14.53;;;12.10;;
12165;SDS011;6146;48.128;11.476;2024-03-08T13:34:36;13.63;;;11.23;;
12165;SDS011;6146;48.128;11.476;2024-03-08T13:37:05;14.43;;;11.77;;
12165;SDS011;6146;48.128;11.476;2024-03-08T13:39:31;12.20;;;10.40;;
12165;SDS011;6146;48.128;11.476;2024-03-08T13:42:06;14.23;;;11.17;;
12165;SDS011;6146;48.128;11.476;2024-03-08T13:44:34;13.50;;;11.57;;
12165;SDS011;6146;48.128;11.476;2024-03-08T13:47:01;14.27;;;10.97;;
12165;SDS011;6146;48.128;11.476;2024-03-08T13:49:29;12.53;;;10.80;;
12165;SDS011;6146;48.128;11.476;2024-03-08T13:51:55;13.33;;;11.60;;
12165;SDS011;6146;48.128;11.476;2024-03-08T13:54:23;14.27;;;10.63;;
12165;SDS011;6146;48.128;11.476;2024-03-08T13:56:49;13.63;;;11.27;;
12165;SDS011;6146;48.128;11.476;2024-03-08T13:59:17;14.43;;;11.70;;
12165;SDS011;6146;48.128;11.476;2024-03-08T14:01:43;13.73;;;11.87;;
12165;SDS011;6146;48.128;11.476;2024-03-08T14:04:09;14.30;;;11.73;;
12165;SDS011;6146;48.128;11.476;2024-03-08T14:06:34;15.00;;;12.10;;
12165;SDS011;6146;48.128;11.476;2024-03-08T14:09:00;14.33;;;11.23;;
12165;SDS011;6146;48.128;11.476;2024-03-08T14:11:26;13.70;;;11.33;;
12165;SDS011;6146;48.128;11.476;2024-03-08T14:13:52;14.93;;;11.03;;
12165;SDS011;6146;48.128;11.476;2024-03-08T14:16:18;14.53;;;11.90;;
12165;SDS011;6146;48.128;11.476;2024-03-08T14:18:44;14.03;;;10.83;;
12165;SDS011;6146;48.128;11.476;2024-03-08T14:21:10;13.63;;;11.07;;
12165;SDS011;6146;48.128;11.476;2024-03-08T14:23:35;13.87;;;11.77;;
12165;SDS011;6146;48.128;11.476;2024-03-08T14:26:01;13.63;;;11.17;;
12165;SDS011;6146;48.128;11.476;2024-03-08T14:28:29;14.63;;;11.60;;